Ana Sayfa
METAR-TAF:

METAR-TAF

Havaalanları :

Noatak, Alaska, Amerika Birleşik Devletleri

Enlem: 67-34N, Boylam: 162-59W, yükseklik: 27 m

Güncel hava durumu gözlemi

Rapor saat 10:18 UTC de 25 dakika önce yapıldı.
Rüzgar güneydoğudan 3 kt
Sıcaklık -4°C
Nem 100%
Basınç 984 hPa
Görüş mesafesi: 4.8 km
2500 ft yükseklikte çok bulutlu
hafif kar, Pus

METAR: PAWN 121018Z AUTO 13003KT 3SM -SN BR OVC025 M04/M04 A2906 RMK AO2 P0000 FZRANO

Saat: 02:43 (10:43 UTC)


TAF: eksik

4.000'den fazla havaalanı için hava durumu gözlemleri ve tahminleri (METAR ve TAF raporları).

Kullanılabilir istasyonlar harita üzerinde sarı ve kırmızı noktalarla gösterilir.

İstasyonun adını görmek için fareyi noktanın üzerinde gezdirin.

Sonrasında hava gözlem ve tahminlerini görmek için tıklayın.

Haritayı değiştirmek için: yaklaştırmak için siyah artı işaretli yeşil düğmeye ve uzaklaştırmak için de eksi işaretli düğmeye hızla tıklayın; bitişik haritalar için yeşil okları kullanın.


METAR-TAF: